createdAt,value
2023-02-22T00:00:39.241Z,1011.96
2023-02-22T00:01:39.303Z,1011.96
2023-02-22T00:02:40.302Z,1011.97
2023-02-22T00:03:39.284Z,1011.97
2023-02-22T00:04:39.008Z,1012.01
2023-02-22T00:05:38.995Z,1011.94
2023-02-22T00:06:39.225Z,1011.97
2023-02-22T00:07:38.976Z,1011.98
2023-02-22T00:08:39.226Z,1012.01
2023-02-22T00:09:39.194Z,1012.01
2023-02-22T00:10:38.944Z,1011.92
2023-02-22T00:11:39.175Z,1011.93
2023-02-22T00:12:38.915Z,1011.94
2023-02-22T00:13:39.168Z,1011.92
2023-02-22T00:14:38.915Z,1011.94
2023-02-22T00:15:39.127Z,1011.90
2023-02-22T00:16:38.921Z,1011.91
2023-02-22T00:17:40.157Z,1011.83
2023-02-22T00:18:39.088Z,1011.84
2023-02-22T00:19:40.286Z,1011.81
2023-02-22T00:20:39.068Z,1011.86
2023-02-22T00:21:39.578Z,1011.84
2023-02-22T00:22:38.824Z,1011.78
2023-02-22T00:23:39.048Z,1011.76
2023-02-22T00:24:40.077Z,1011.75
2023-02-22T00:25:39.021Z,1011.72
2023-02-22T00:26:40.039Z,1011.72
2023-02-22T00:27:38.215Z,1011.70
2023-02-22T00:28:38.739Z,1011.74
2023-02-22T00:29:38.764Z,1011.71
2023-02-22T00:30:40.020Z,1011.67
2023-02-22T00:31:40.036Z,1011.68
2023-02-22T00:32:38.733Z,1011.68
2023-02-22T00:33:38.705Z,1011.62
2023-02-22T00:34:39.993Z,1011.61
2023-02-22T00:35:38.908Z,1011.62
2023-02-22T00:36:38.909Z,1011.61
2023-02-22T00:37:38.653Z,1011.59
2023-02-22T00:38:38.869Z,1011.59
2023-02-22T00:39:38.880Z,1011.64
2023-02-22T00:40:38.626Z,1011.62
2023-02-22T00:41:37.929Z,1011.60
2023-02-22T00:42:38.853Z,1011.58
2023-02-22T00:43:38.591Z,1011.55
2023-02-22T00:44:38.867Z,1011.55
2023-02-22T00:45:37.913Z,1011.58
2023-02-22T00:46:38.551Z,1011.55
2023-02-22T00:47:38.532Z,1011.56
2023-02-22T00:48:38.528Z,1011.58
2023-02-22T00:49:38.812Z,1011.56
2023-02-22T00:50:38.508Z,1011.54
2023-02-22T00:51:37.832Z,1011.55
2023-02-22T00:52:38.484Z,1011.55
2023-02-22T00:53:38.467Z,1011.56
2023-02-22T00:54:37.829Z,1011.48
2023-02-22T00:55:38.443Z,1011.51
2023-02-22T00:56:37.778Z,1011.47
2023-02-22T00:57:38.684Z,1011.46
2023-02-22T00:58:38.668Z,1011.43
2023-02-22T00:59:37.744Z,1011.41
2023-02-22T01:00:38.403Z,1011.43
2023-02-22T01:01:37.774Z,1011.46
2023-02-22T01:02:37.739Z,1011.43
2023-02-22T01:03:38.363Z,1011.41
2023-02-22T01:04:37.705Z,1011.37
2023-02-22T01:05:38.359Z,1011.39
2023-02-22T01:06:37.669Z,1011.34
2023-02-22T01:07:37.661Z,1011.39
2023-02-22T01:08:37.653Z,1011.37
2023-02-22T01:09:37.626Z,1011.39
2023-02-22T01:10:38.304Z,1011.38
2023-02-22T01:11:38.281Z,1011.39
2023-02-22T01:12:37.602Z,1011.38
2023-02-22T01:13:38.257Z,1011.35
2023-02-22T01:14:37.585Z,1011.38
2023-02-22T01:15:38.235Z,1011.33
2023-02-22T01:16:37.621Z,1011.34
2023-02-22T01:17:38.477Z,1011.33
2023-02-22T01:18:38.196Z,1011.32
2023-02-22T01:19:38.207Z,1011.30
2023-02-22T01:20:38.175Z,1011.30
2023-02-22T01:21:37.491Z,1011.28
2023-02-22T01:22:38.152Z,1011.25
2023-02-22T01:23:38.150Z,1011.23
2023-02-22T01:24:38.149Z,1011.24
2023-02-22T01:25:37.439Z,1011.24
2023-02-22T01:26:38.119Z,1011.21
2023-02-22T01:27:38.098Z,1011.23
2023-02-22T01:28:38.072Z,1011.20
2023-02-22T01:29:38.121Z,1011.22
2023-02-22T01:30:37.573Z,1011.21
2023-02-22T01:31:38.185Z,1011.20
2023-02-22T01:32:38.039Z,1011.21
2023-02-22T01:33:38.028Z,1011.19
2023-02-22T01:34:38.020Z,1011.16
2023-02-22T01:35:38.066Z,1011.10
2023-02-22T01:36:38.255Z,1011.14
2023-02-22T01:37:37.298Z,1011.08
2023-02-22T01:38:37.279Z,1011.07
2023-02-22T01:39:37.311Z,1011.06
2023-02-22T01:40:37.952Z,1011.03
2023-02-22T01:41:37.976Z,1010.96
2023-02-22T01:42:37.253Z,1011.00
2023-02-22T01:43:37.243Z,1010.98
2023-02-22T01:44:37.262Z,1010.98
2023-02-22T01:45:37.226Z,1010.93
2023-02-22T01:46:37.210Z,1010.95
2023-02-22T01:47:37.442Z,1010.95
2023-02-22T01:48:37.207Z,1010.94
2023-02-22T01:49:37.206Z,1010.99
2023-02-22T01:50:37.154Z,1010.98
2023-02-22T01:51:37.919Z,1010.99
2023-02-22T01:52:37.154Z,1010.97
2023-02-22T01:53:37.807Z,1010.94
2023-02-22T01:54:38.069Z,1010.93
2023-02-22T01:55:37.788Z,1010.91
2023-02-22T01:56:37.796Z,1010.91
2023-02-22T01:57:37.758Z,1010.91
2023-02-22T01:58:39.018Z,1010.93
2023-02-22T01:59:39.012Z,1010.92
2023-02-22T02:00:37.750Z,1010.84
2023-02-22T02:01:37.716Z,1010.86
2023-02-22T02:02:37.706Z,1010.87
2023-02-22T02:03:37.717Z,1010.85
2023-02-22T02:04:37.003Z,1010.86
2023-02-22T02:05:37.698Z,1010.84
2023-02-22T02:06:37.012Z,1010.85
2023-02-22T02:07:37.648Z,1010.84
2023-02-22T02:08:37.945Z,1010.82
2023-02-22T02:09:38.910Z,1010.80
2023-02-22T02:10:37.647Z,1010.83
2023-02-22T02:11:36.952Z,1010.79
2023-02-22T02:12:37.591Z,1010.83
2023-02-22T02:13:37.600Z,1010.80
2023-02-22T02:14:37.573Z,1010.83
2023-02-22T02:15:37.597Z,1010.84
2023-02-22T02:16:37.578Z,1010.81
2023-02-22T02:17:36.870Z,1010.82
2023-02-22T02:18:37.533Z,1010.80
2023-02-22T02:19:36.833Z,1010.84
2023-02-22T02:20:36.874Z,1010.80
2023-02-22T02:21:36.807Z,1010.77
2023-02-22T02:22:36.808Z,1010.75
2023-02-22T02:23:36.805Z,1010.77
2023-02-22T02:24:37.624Z,1010.74
2023-02-22T02:25:37.618Z,1010.73
2023-02-22T02:26:37.447Z,1010.75
2023-02-22T02:27:37.593Z,1010.71
2023-02-22T02:28:36.735Z,1010.71
2023-02-22T02:29:37.594Z,1010.71
2023-02-22T02:30:36.877Z,1010.70
2023-02-22T02:31:36.862Z,1010.72
2023-02-22T02:32:36.782Z,1010.75
2023-02-22T02:33:36.687Z,1010.71
2023-02-22T02:34:36.696Z,1010.72
2023-02-22T02:35:36.711Z,1010.65
2023-02-22T02:36:37.352Z,1010.65
2023-02-22T02:37:37.328Z,1010.70
2023-02-22T02:38:37.362Z,1010.70
2023-02-22T02:39:36.628Z,1010.68
2023-02-22T02:40:36.649Z,1010.67
2023-02-22T02:41:37.568Z,1010.68
2023-02-22T02:42:37.283Z,1010.64
2023-02-22T02:43:37.259Z,1010.68
2023-02-22T02:44:37.260Z,1010.69
2023-02-22T02:45:36.610Z,1010.67
2023-02-22T02:46:37.254Z,1010.66
2023-02-22T02:47:36.561Z,1010.60
2023-02-22T02:48:36.531Z,1010.62
2023-02-22T02:49:37.202Z,1010.62
2023-02-22T02:50:37.213Z,1010.63
2023-02-22T02:51:36.497Z,1010.63
2023-02-22T02:52:37.172Z,1010.62
2023-02-22T02:53:37.176Z,1010.61
2023-02-22T02:54:37.153Z,1010.55
2023-02-22T02:55:37.182Z,1010.56
2023-02-22T02:56:36.427Z,1010.50
2023-02-22T02:57:36.436Z,1010.54
2023-02-22T02:58:36.415Z,1010.49
2023-02-22T02:59:36.457Z,1010.44
2023-02-22T03:00:37.096Z,1010.44
2023-02-22T03:01:37.174Z,1010.46
2023-02-22T03:02:36.394Z,1010.37
2023-02-22T03:03:37.054Z,1010.42
2023-02-22T03:04:36.373Z,1010.41
2023-02-22T03:05:36.368Z,1010.40
2023-02-22T03:06:37.044Z,1010.37
2023-02-22T03:07:37.040Z,1010.38
2023-02-22T03:08:36.305Z,1010.36
2023-02-22T03:09:36.325Z,1010.40
2023-02-22T03:10:36.982Z,1010.36
2023-02-22T03:11:36.998Z,1010.35
2023-02-22T03:12:36.274Z,1010.34
2023-02-22T03:13:36.294Z,1010.35
2023-02-22T03:14:36.286Z,1010.35
2023-02-22T03:15:36.242Z,1010.30
2023-02-22T03:16:36.265Z,1010.29
2023-02-22T03:17:36.904Z,1010.29
2023-02-22T03:18:36.227Z,1010.30
2023-02-22T03:19:36.879Z,1010.29
2023-02-22T03:20:36.182Z,1010.29
2023-02-22T03:21:36.217Z,1010.29
2023-02-22T03:22:36.177Z,1010.26
2023-02-22T03:23:36.845Z,1010.24
2023-02-22T03:24:36.830Z,1010.25
2023-02-22T03:25:36.821Z,1010.23
2023-02-22T03:26:36.182Z,1010.19
2023-02-22T03:27:36.799Z,1010.14
2023-02-22T03:28:36.090Z,1010.17
2023-02-22T03:29:36.787Z,1010.15
2023-02-22T03:30:36.789Z,1010.11
2023-02-22T03:31:36.782Z,1010.11
2023-02-22T03:32:36.745Z,1010.12
2023-02-22T03:33:36.053Z,1010.04
2023-02-22T03:34:36.731Z,1010.07
2023-02-22T03:35:36.051Z,1010.07
2023-02-22T03:36:36.736Z,1010.07
2023-02-22T03:37:36.694Z,1010.00
2023-02-22T03:38:35.985Z,1010.01
2023-02-22T03:39:36.099Z,1010.01
2023-02-22T03:40:35.985Z,1009.99
2023-02-22T03:41:36.676Z,1009.96
2023-02-22T03:42:35.945Z,1009.92
2023-02-22T03:43:36.642Z,1009.90
2023-02-22T03:44:36.620Z,1009.89
2023-02-22T03:45:35.926Z,1009.93
2023-02-22T03:46:35.975Z,1009.87
2023-02-22T03:47:36.840Z,1009.87
2023-02-22T03:48:37.819Z,1009.91
2023-02-22T03:49:36.583Z,1009.93
2023-02-22T03:50:36.811Z,1009.95
2023-02-22T03:51:35.878Z,1009.90
2023-02-22T03:52:35.894Z,1009.89
2023-02-22T03:53:36.521Z,1009.90
2023-02-22T03:54:36.518Z,1009.84
2023-02-22T03:55:36.498Z,1009.88
2023-02-22T03:56:36.539Z,1009.82
2023-02-22T03:57:35.788Z,1009.85
2023-02-22T03:58:36.503Z,1009.91
2023-02-22T03:59:36.460Z,1009.85
2023-02-22T04:00:36.470Z,1009.88
2023-02-22T04:01:36.453Z,1009.84
2023-02-22T04:02:35.756Z,1009.84
2023-02-22T04:03:36.433Z,1009.81
2023-02-22T04:04:35.790Z,1009.78
2023-02-22T04:05:36.392Z,1009.81
2023-02-22T04:06:35.719Z,1009.82
2023-02-22T04:07:35.711Z,1009.85
2023-02-22T04:08:36.361Z,1009.80
2023-02-22T04:09:35.707Z,1009.80
2023-02-22T04:10:35.689Z,1009.78
2023-02-22T04:11:36.336Z,1009.76
2023-02-22T04:12:36.349Z,1009.78
2023-02-22T04:13:37.569Z,1009.80
2023-02-22T04:14:35.816Z,1009.77
2023-02-22T04:15:35.810Z,1009.79
2023-02-22T04:16:39.674Z,1009.79
2023-02-22T04:17:35.632Z,1009.84
2023-02-22T04:18:37.515Z,1009.83
2023-02-22T04:19:35.652Z,1009.80
2023-02-22T04:20:36.231Z,1009.83
2023-02-22T04:21:35.584Z,1009.83
2023-02-22T04:22:36.233Z,1009.86
2023-02-22T04:23:35.600Z,1009.79
2023-02-22T04:24:36.192Z,1009.82
2023-02-22T04:25:36.193Z,1009.82
2023-02-22T04:26:35.494Z,1009.82
2023-02-22T04:27:35.514Z,1009.88
2023-02-22T04:28:36.143Z,1009.85
2023-02-22T04:29:36.134Z,1009.86
2023-02-22T04:30:35.489Z,1009.80
2023-02-22T04:31:35.473Z,1009.79
2023-02-22T04:32:35.476Z,1009.82
2023-02-22T04:33:35.454Z,1009.76
2023-02-22T04:34:36.084Z,1009.77
2023-02-22T04:35:36.076Z,1009.81
2023-02-22T04:36:36.061Z,1009.81
2023-02-22T04:37:35.401Z,1009.82
2023-02-22T04:38:36.054Z,1009.76
2023-02-22T04:39:36.098Z,1009.79
2023-02-22T04:40:36.286Z,1009.78
2023-02-22T04:41:36.006Z,1009.75
2023-02-22T04:42:35.318Z,1009.77
2023-02-22T04:43:35.331Z,1009.72
2023-02-22T04:44:35.974Z,1009.75
2023-02-22T04:45:35.970Z,1009.75
2023-02-22T04:46:35.975Z,1009.74
2023-02-22T04:47:37.210Z,1009.74
2023-02-22T04:48:36.208Z,1009.77
2023-02-22T04:49:37.419Z,1009.72
2023-02-22T04:50:35.246Z,1009.73
2023-02-22T04:51:35.236Z,1009.74
2023-02-22T04:52:35.442Z,1009.76
2023-02-22T04:53:35.942Z,1009.73
2023-02-22T04:54:35.869Z,1009.75
2023-02-22T04:55:35.937Z,1009.72
2023-02-22T04:56:35.849Z,1009.73
2023-02-22T04:57:35.840Z,1009.71
2023-02-22T04:58:36.119Z,1009.69
2023-02-22T04:59:35.149Z,1009.70
2023-02-22T05:00:35.129Z,1009.73
2023-02-22T05:01:35.823Z,1009.73
2023-02-22T05:02:35.852Z,1009.71
2023-02-22T05:03:35.796Z,1009.72
2023-02-22T05:04:36.077Z,1009.67
2023-02-22T05:05:35.073Z,1009.69
2023-02-22T05:06:35.074Z,1009.71
2023-02-22T05:07:35.732Z,1009.68
2023-02-22T05:08:35.756Z,1009.66
2023-02-22T05:09:35.054Z,1009.66
2023-02-22T05:10:35.700Z,1009.64
2023-02-22T05:11:35.714Z,1009.67
2023-02-22T05:12:36.329Z,1009.65
2023-02-22T05:13:35.711Z,1009.62
2023-02-22T05:14:35.655Z,1009.64
2023-02-22T05:15:35.650Z,1009.63
2023-02-22T05:16:36.888Z,1009.61
2023-02-22T05:17:35.630Z,1009.61
2023-02-22T05:18:35.635Z,1009.63
2023-02-22T05:19:34.931Z,1009.62
2023-02-22T05:20:35.603Z,1009.61
2023-02-22T05:21:35.574Z,1009.63
2023-02-22T05:22:35.563Z,1009.64
2023-02-22T05:23:34.901Z,1009.63
2023-02-22T05:24:34.875Z,1009.67
2023-02-22T05:25:35.537Z,1009.61
2023-02-22T05:26:34.871Z,1009.62
2023-02-22T05:27:34.836Z,1009.63
2023-02-22T05:28:34.850Z,1009.64
2023-02-22T05:29:34.823Z,1009.65
2023-02-22T05:30:35.524Z,1009.58
2023-02-22T05:31:35.628Z,1009.60
2023-02-22T05:32:35.455Z,1009.62
2023-02-22T05:33:34.787Z,1009.56
2023-02-22T05:34:35.678Z,1009.57
2023-02-22T05:35:35.426Z,1009.57
2023-02-22T05:36:34.757Z,1009.57
2023-02-22T05:37:35.421Z,1009.59
2023-02-22T05:38:34.768Z,1009.55
2023-02-22T05:39:35.538Z,1009.54
2023-02-22T05:40:37.542Z,1009.54
2023-02-22T05:41:35.357Z,1009.55
2023-02-22T05:42:35.597Z,1009.52
2023-02-22T05:43:35.369Z,1009.55
2023-02-22T05:44:35.330Z,1009.50
2023-02-22T05:45:36.589Z,1009.51
2023-02-22T05:46:36.097Z,1009.51
2023-02-22T05:47:35.322Z,1009.51
2023-02-22T05:48:35.326Z,1009.52
2023-02-22T05:49:35.283Z,1009.52
2023-02-22T05:50:35.512Z,1009.49
2023-02-22T05:51:35.500Z,1009.55
2023-02-22T05:52:35.490Z,1009.51
2023-02-22T05:53:35.505Z,1009.50
2023-02-22T05:54:35.464Z,1009.51
2023-02-22T05:55:35.211Z,1009.46
2023-02-22T05:56:35.445Z,1009.52
2023-02-22T05:57:35.431Z,1009.53
2023-02-22T05:58:35.435Z,1009.54
2023-02-22T05:59:35.438Z,1009.52
2023-02-22T06:00:35.390Z,1009.46
2023-02-22T06:01:35.471Z,1009.47
2023-02-22T06:02:35.380Z,1009.41
2023-02-22T06:03:35.142Z,1009.47
2023-02-22T06:04:35.111Z,1009.46
2023-02-22T06:05:35.459Z,1009.47
2023-02-22T06:06:35.371Z,1009.44
2023-02-22T06:07:35.310Z,1009.44
2023-02-22T06:08:35.087Z,1009.46
2023-02-22T06:09:35.053Z,1009.42
2023-02-22T06:10:35.280Z,1009.41
2023-02-22T06:11:35.274Z,1009.39
2023-02-22T06:12:35.261Z,1009.41
2023-02-22T06:13:35.277Z,1009.43
2023-02-22T06:14:35.003Z,1009.42
2023-02-22T06:15:35.251Z,1009.41
2023-02-22T06:16:35.307Z,1009.38
2023-02-22T06:17:35.221Z,1009.36
2023-02-22T06:18:35.247Z,1009.37
2023-02-22T06:19:35.208Z,1009.34
2023-02-22T06:20:35.188Z,1009.34
2023-02-22T06:21:34.921Z,1009.34
2023-02-22T06:22:34.222Z,1009.32
2023-02-22T06:23:34.902Z,1009.39
2023-02-22T06:24:34.918Z,1009.33
2023-02-22T06:25:34.873Z,1009.36
2023-02-22T06:26:34.875Z,1009.37
2023-02-22T06:27:35.132Z,1009.36
2023-02-22T06:28:34.843Z,1009.37
2023-02-22T06:29:34.857Z,1009.35
2023-02-22T06:30:34.870Z,1009.32
2023-02-22T06:31:34.823Z,1009.37
2023-02-22T06:32:34.813Z,1009.36
2023-02-22T06:33:34.848Z,1009.35
2023-02-22T06:34:35.073Z,1009.31
2023-02-22T06:35:34.091Z,1009.38
2023-02-22T06:36:34.763Z,1009.34
2023-02-22T06:37:34.744Z,1009.34
2023-02-22T06:38:34.071Z,1009.33
2023-02-22T06:39:35.021Z,1009.33
2023-02-22T06:40:34.969Z,1009.34
2023-02-22T06:41:34.066Z,1009.33
2023-02-22T06:42:34.694Z,1009.34
2023-02-22T06:43:34.683Z,1009.35
2023-02-22T06:44:34.685Z,1009.38
2023-02-22T06:45:34.054Z,1009.37
2023-02-22T06:46:34.645Z,1009.34
2023-02-22T06:47:34.638Z,1009.39
2023-02-22T06:48:34.629Z,1009.38
2023-02-22T06:49:34.641Z,1009.40
2023-02-22T06:50:35.835Z,1009.38
2023-02-22T06:51:33.914Z,1009.36
2023-02-22T06:52:33.935Z,1009.40
2023-02-22T06:53:33.896Z,1009.38
2023-02-22T06:54:33.906Z,1009.32
2023-02-22T06:55:33.881Z,1009.37
2023-02-22T06:56:33.885Z,1009.35
2023-02-22T06:57:33.876Z,1009.40
2023-02-22T06:58:34.515Z,1009.35
2023-02-22T06:59:34.525Z,1009.32
2023-02-22T07:00:34.513Z,1009.38
2023-02-22T07:01:33.811Z,1009.37
2023-02-22T07:02:34.474Z,1009.33
2023-02-22T07:03:33.810Z,1009.37
2023-02-22T07:04:36.148Z,1009.35
2023-02-22T07:05:34.466Z,1009.35
2023-02-22T07:06:33.741Z,1009.34
2023-02-22T07:07:33.743Z,1009.33
2023-02-22T07:08:33.746Z,1009.29
2023-02-22T07:09:34.424Z,1009.25
2023-02-22T07:10:34.392Z,1009.28
2023-02-22T07:11:34.380Z,1009.29
2023-02-22T07:12:34.363Z,1009.23
2023-02-22T07:13:34.354Z,1009.28
2023-02-22T07:14:34.390Z,1009.26
2023-02-22T07:15:33.661Z,1009.32
2023-02-22T07:16:34.359Z,1009.28
2023-02-22T07:17:34.318Z,1009.32
2023-02-22T07:18:33.617Z,1009.32
2023-02-22T07:19:34.314Z,1009.29
2023-02-22T07:20:33.606Z,1009.27
2023-02-22T07:21:34.270Z,1009.25
2023-02-22T07:22:34.256Z,1009.41
2023-02-22T07:23:34.265Z,1009.37
2023-02-22T07:24:33.588Z,1009.40
2023-02-22T07:25:33.557Z,1009.37
2023-02-22T07:26:34.261Z,1009.39
2023-02-22T07:27:33.520Z,1009.42
2023-02-22T07:28:34.206Z,1009.42
2023-02-22T07:29:33.548Z,1009.38
2023-02-22T07:30:34.395Z,1009.41
2023-02-22T07:31:34.160Z,1009.41
2023-02-22T07:32:34.185Z,1009.46
2023-02-22T07:33:34.140Z,1009.49
2023-02-22T07:34:33.488Z,1009.45
2023-02-22T07:35:34.120Z,1009.38
2023-02-22T07:36:33.417Z,1009.42
2023-02-22T07:37:33.423Z,1009.38
2023-02-22T07:38:34.098Z,1009.41
2023-02-22T07:39:34.085Z,1009.36
2023-02-22T07:40:34.093Z,1009.37
2023-02-22T07:41:34.054Z,1009.42
2023-02-22T07:42:33.382Z,1009.37
2023-02-22T07:43:33.382Z,1009.40
2023-02-22T07:44:34.023Z,1009.38
2023-02-22T07:45:34.071Z,1009.40
2023-02-22T07:46:33.338Z,1009.38
2023-02-22T07:47:34.035Z,1009.32
2023-02-22T07:48:33.322Z,1009.38
2023-02-22T07:49:33.963Z,1009.39
2023-02-22T07:50:33.973Z,1009.39
2023-02-22T07:51:33.941Z,1009.40
2023-02-22T07:52:33.939Z,1009.40
2023-02-22T07:53:33.933Z,1009.38
2023-02-22T07:54:33.245Z,1009.34
2023-02-22T07:55:33.932Z,1009.27
2023-02-22T07:56:33.894Z,1009.23
2023-02-22T07:57:33.209Z,1009.24
2023-02-22T07:58:33.877Z,1009.30
2023-02-22T07:59:33.860Z,1009.24
2023-02-22T08:00:33.184Z,1009.24
2023-02-22T08:01:33.176Z,1009.25
2023-02-22T08:02:33.187Z,1009.30
2023-02-22T08:03:33.157Z,1009.22
2023-02-22T08:04:33.125Z,1009.29
2023-02-22T08:05:33.815Z,1009.25
2023-02-22T08:06:33.785Z,1009.20
2023-02-22T08:07:33.802Z,1009.20
2023-02-22T08:08:33.756Z,1009.25
2023-02-22T08:09:33.749Z,1009.18
2023-02-22T08:10:33.756Z,1009.21
2023-02-22T08:11:33.062Z,1009.22
2023-02-22T08:12:33.073Z,1009.14
2023-02-22T08:13:33.023Z,1009.15
2023-02-22T08:14:33.707Z,1009.16
2023-02-22T08:15:33.700Z,1009.17
2023-02-22T08:16:33.056Z,1009.15
2023-02-22T08:17:32.979Z,1009.16
2023-02-22T08:18:33.653Z,1009.16
2023-02-22T08:19:33.647Z,1009.15
2023-02-22T08:20:32.968Z,1009.12
2023-02-22T08:21:33.618Z,1009.17
2023-02-22T08:22:33.610Z,1009.15
2023-02-22T08:23:32.925Z,1009.14
2023-02-22T08:24:32.922Z,1009.13
2023-02-22T08:25:33.606Z,1009.13
2023-02-22T08:26:33.561Z,1009.13
2023-02-22T08:27:33.551Z,1009.13
2023-02-22T08:28:32.863Z,1009.14
2023-02-22T08:29:33.531Z,1009.17
2023-02-22T08:30:33.553Z,1009.22
2023-02-22T08:31:33.567Z,1009.22
2023-02-22T08:32:33.708Z,1009.22
2023-02-22T08:33:33.526Z,1009.23
2023-02-22T08:34:32.796Z,1009.20
2023-02-22T08:35:32.803Z,1009.20
2023-02-22T08:36:33.452Z,1009.17
2023-02-22T08:37:32.770Z,1009.18
2023-02-22T08:38:32.751Z,1009.15
2023-02-22T08:39:32.742Z,1009.17
2023-02-22T08:40:33.445Z,1009.16
2023-02-22T08:41:32.710Z,1009.19
2023-02-22T08:42:33.389Z,1009.11
2023-02-22T08:43:33.396Z,1009.11
2023-02-22T08:44:33.370Z,1009.06
2023-02-22T08:45:32.721Z,1009.08
2023-02-22T08:46:32.670Z,1009.13
2023-02-22T08:47:32.679Z,1009.08
2023-02-22T08:48:33.338Z,1009.10
2023-02-22T08:49:33.311Z,1009.03
2023-02-22T08:50:32.661Z,1009.01
2023-02-22T08:51:32.591Z,1009.04
2023-02-22T08:52:32.582Z,1009.02
2023-02-22T08:53:33.272Z,1009.03
2023-02-22T08:54:33.257Z,1009.01
2023-02-22T08:55:33.254Z,1008.95
2023-02-22T08:56:33.254Z,1008.95
2023-02-22T08:57:33.234Z,1008.91
2023-02-22T08:58:33.211Z,1008.92
2023-02-22T08:59:33.214Z,1008.94
2023-02-22T09:00:33.470Z,1008.89
2023-02-22T09:01:33.835Z,1008.94
2023-02-22T09:02:33.168Z,1008.92
2023-02-22T09:03:33.222Z,1008.94
2023-02-22T09:04:33.156Z,1008.95
2023-02-22T09:05:33.140Z,1008.87
2023-02-22T09:06:33.154Z,1008.95
2023-02-22T09:07:33.122Z,1008.85
2023-02-22T09:08:33.101Z,1008.84
2023-02-22T09:09:32.408Z,1008.78
2023-02-22T09:10:33.083Z,1008.78
2023-02-22T09:11:32.417Z,1008.84
2023-02-22T09:12:33.063Z,1008.80
2023-02-22T09:13:33.052Z,1008.86
2023-02-22T09:14:33.042Z,1008.85
2023-02-22T09:15:33.028Z,1008.80
2023-02-22T09:16:32.452Z,1008.84
2023-02-22T09:17:33.002Z,1008.78
2023-02-22T09:18:43.445Z,1008.79
2023-02-22T09:19:33.298Z,1008.86
2023-02-22T09:20:32.298Z,1008.83
2023-02-22T09:21:32.317Z,1008.81
2023-02-22T09:22:32.277Z,1008.83
2023-02-22T09:23:32.941Z,1008.78
2023-02-22T09:24:32.945Z,1008.82
2023-02-22T09:25:32.927Z,1008.83
2023-02-22T09:26:32.936Z,1008.84
2023-02-22T09:27:32.228Z,1008.82
2023-02-22T09:28:32.235Z,1008.81
2023-02-22T09:29:32.327Z,1008.77
2023-02-22T09:30:32.961Z,1008.80
2023-02-22T09:31:32.976Z,1008.79
2023-02-22T09:32:32.335Z,1008.81
2023-02-22T09:33:32.172Z,1008.83
2023-02-22T09:34:32.139Z,1008.78
2023-02-22T09:35:32.810Z,1008.81
2023-02-22T09:36:32.096Z,1008.80
2023-02-22T09:37:32.808Z,1008.79
2023-02-22T09:38:32.089Z,1008.80
2023-02-22T09:39:32.802Z,1008.81
2023-02-22T09:40:32.069Z,1008.78
2023-02-22T09:41:34.017Z,1008.82
2023-02-22T09:42:32.756Z,1008.86
2023-02-22T09:43:32.047Z,1008.85
2023-02-22T09:44:32.047Z,1008.86
2023-02-22T09:45:32.130Z,1008.88
2023-02-22T09:46:32.026Z,1008.85
2023-02-22T09:47:32.046Z,1008.85
2023-02-22T09:48:32.001Z,1008.87
2023-02-22T09:49:31.978Z,1008.89
2023-02-22T09:50:31.965Z,1008.87
2023-02-22T09:51:32.639Z,1008.86
2023-02-22T09:52:31.969Z,1008.88
2023-02-22T09:53:32.623Z,1008.90
2023-02-22T09:54:31.938Z,1008.86
2023-02-22T09:55:31.910Z,1008.85
2023-02-22T09:56:31.922Z,1008.83
2023-02-22T09:57:31.930Z,1008.83
2023-02-22T09:58:32.803Z,1008.86
2023-02-22T09:59:31.875Z,1008.89
2023-02-22T10:00:31.920Z,1008.83
2023-02-22T10:01:31.852Z,1008.75
2023-02-22T10:02:31.861Z,1008.84
2023-02-22T10:03:31.852Z,1008.78
2023-02-22T10:04:32.505Z,1008.74
2023-02-22T10:05:31.825Z,1008.75
2023-02-22T10:06:32.483Z,1008.71
2023-02-22T10:07:31.814Z,1008.64
2023-02-22T10:08:31.790Z,1008.68
2023-02-22T10:09:32.445Z,1008.70
2023-02-22T10:10:31.777Z,1008.66
2023-02-22T10:11:32.427Z,1008.71
2023-02-22T10:12:32.427Z,1008.71
2023-02-22T10:13:31.716Z,1008.73
2023-02-22T10:14:33.645Z,1008.75
2023-02-22T10:15:31.706Z,1008.72
2023-02-22T10:16:32.420Z,1008.69
2023-02-22T10:17:32.376Z,1008.70
2023-02-22T10:18:31.658Z,1008.67
2023-02-22T10:19:31.648Z,1008.65
2023-02-22T10:20:31.647Z,1008.67
2023-02-22T10:21:32.311Z,1008.64
2023-02-22T10:22:31.649Z,1008.65
2023-02-22T10:23:31.655Z,1008.67
2023-02-22T10:24:32.279Z,1008.64
2023-02-22T10:25:32.268Z,1008.62
2023-02-22T10:26:32.272Z,1008.58
2023-02-22T10:27:31.579Z,1008.56
2023-02-22T10:28:32.234Z,1008.56
2023-02-22T10:29:31.540Z,1008.58
2023-02-22T10:30:34.147Z,1008.56
2023-02-22T10:31:31.583Z,1008.59
2023-02-22T10:32:31.594Z,1008.60
2023-02-22T10:33:32.210Z,1008.59
2023-02-22T10:34:32.188Z,1008.60
2023-02-22T10:35:31.475Z,1008.60
2023-02-22T10:36:32.147Z,1008.62
2023-02-22T10:37:31.519Z,1008.60
2023-02-22T10:38:32.126Z,1008.58
2023-02-22T10:39:31.491Z,1008.59
2023-02-22T10:40:31.416Z,1008.54
2023-02-22T10:41:32.096Z,1008.57
2023-02-22T10:42:31.427Z,1008.53
2023-02-22T10:43:32.074Z,1008.52
2023-02-22T10:44:31.380Z,1008.52
2023-02-22T10:45:32.166Z,1008.50
2023-02-22T10:46:32.042Z,1008.43
2023-02-22T10:47:31.357Z,1008.46
2023-02-22T10:48:31.368Z,1008.43
2023-02-22T10:49:31.330Z,1008.45
2023-02-22T10:50:31.349Z,1008.45
2023-02-22T10:51:32.009Z,1008.44
2023-02-22T10:52:31.981Z,1008.44
2023-02-22T10:53:31.301Z,1008.34
2023-02-22T10:54:31.282Z,1008.35
2023-02-22T10:55:31.262Z,1008.35
2023-02-22T10:56:31.942Z,1008.33
2023-02-22T10:57:31.924Z,1008.29
2023-02-22T10:58:31.934Z,1008.32
2023-02-22T10:59:31.222Z,1008.32
2023-02-22T11:00:31.919Z,1008.30
2023-02-22T11:01:31.971Z,1008.31
2023-02-22T11:02:31.871Z,1008.32
2023-02-22T11:03:31.226Z,1008.34
2023-02-22T11:04:31.173Z,1008.37
2023-02-22T11:05:31.155Z,1008.34
2023-02-22T11:06:31.147Z,1008.35
2023-02-22T11:07:31.127Z,1008.35
2023-02-22T11:08:31.847Z,1008.34
2023-02-22T11:09:31.800Z,1008.32
2023-02-22T11:10:31.109Z,1008.33
2023-02-22T11:11:31.159Z,1008.33
2023-02-22T11:12:31.105Z,1008.32
2023-02-22T11:13:31.136Z,1008.32
2023-02-22T11:14:31.744Z,1008.34
2023-02-22T11:15:31.741Z,1008.27
2023-02-22T11:16:31.743Z,1008.32
2023-02-22T11:17:31.709Z,1008.30
2023-02-22T11:18:31.728Z,1008.33
2023-02-22T11:19:31.016Z,1008.30
2023-02-22T11:20:31.021Z,1008.28
2023-02-22T11:21:30.990Z,1008.28
2023-02-22T11:22:30.986Z,1008.21
2023-02-22T11:23:31.690Z,1008.16
2023-02-22T11:24:43.561Z,1008.20
2023-02-22T11:25:31.934Z,1008.17
2023-02-22T11:26:31.607Z,1008.18
2023-02-22T11:27:30.933Z,1008.14
2023-02-22T11:28:31.246Z,1008.10
2023-02-22T11:29:30.925Z,1008.16
2023-02-22T11:30:31.003Z,1008.13
2023-02-22T11:31:31.662Z,1008.07
2023-02-22T11:32:31.539Z,1008.05
2023-02-22T11:33:30.878Z,1008.04
2023-02-22T11:34:31.549Z,1008.05
2023-02-22T11:35:30.820Z,1008.03
2023-02-22T11:36:31.497Z,1008.04
2023-02-22T11:37:31.486Z,1008.02
2023-02-22T11:38:31.496Z,1008.03
2023-02-22T11:39:30.819Z,1008.06
2023-02-22T11:40:30.767Z,1008.08
2023-02-22T11:41:30.767Z,1008.02
2023-02-22T11:42:31.427Z,1008.00
2023-02-22T11:43:30.773Z,1008.01
2023-02-22T11:44:30.719Z,1008.03
2023-02-22T11:45:30.707Z,1008.00
2023-02-22T11:46:30.775Z,1008.00
2023-02-22T11:47:31.379Z,1008.00
2023-02-22T11:48:31.363Z,1008.01
2023-02-22T11:49:31.372Z,1008.01
2023-02-22T11:50:30.668Z,1007.98
2023-02-22T11:51:30.638Z,1007.98
2023-02-22T11:52:31.327Z,1007.95
2023-02-22T11:53:31.308Z,1007.94
2023-02-22T11:54:31.337Z,1007.93
2023-02-22T11:55:42.402Z,1007.92
2023-02-22T11:56:37.765Z,1007.91
2023-02-22T11:57:33.010Z,1007.91
2023-02-22T11:58:31.266Z,1007.85
2023-02-22T11:59:31.261Z,1007.88
2023-02-22T12:00:31.231Z,1007.87
2023-02-22T12:01:31.218Z,1007.90
2023-02-22T12:02:30.556Z,1007.89
2023-02-22T12:03:30.640Z,1007.88
2023-02-22T12:04:30.603Z,1007.89
2023-02-22T12:05:31.174Z,1007.83